Time;durP1;ratioP1;P1;durP2;ratioP2;P2;SDS_P1;SDS_P2;PMS_P1;PMS_P2;Temp;Humidity;BMP_temperature;BMP_pressure;BME280_temperature;BME280_humidity;BME280_pressure;Samples;Min_cycle;Max_cycle;Signal;HPM_P1;HPM_P2
2021/08/11 00:00:18;;;;;;;0.95;0.10;;;27.00;52.40;;;;;;5039239;28;20048;-53
2021/08/11 00:02:46;;;;;;;0.10;0.10;;;27.00;51.80;;;;;;5036101;28;20099;-53
2021/08/11 00:05:13;;;;;;;0.13;0.13;;;27.00;51.80;;;;;;5044866;28;20504;-50
2021/08/11 00:07:41;;;;;;;0.20;0.10;;;27.00;51.80;;;;;;5029592;28;20049;-49
2021/08/11 00:10:10;;;;;;;0.10;0.10;;;27.00;51.90;;;;;;5033703;28;20053;-53
2021/08/11 00:12:38;;;;;;;0.10;0.10;;;27.00;51.90;;;;;;5047111;28;20099;-53
2021/08/11 00:15:06;;;;;;;0.13;0.13;;;27.00;51.90;;;;;;5049220;28;20808;-49
2021/08/11 00:17:33;;;;;;;0.10;0.10;;;27.00;51.90;;;;;;5048903;28;20051;-51
2021/08/11 00:20:00;;;;;;;0.10;0.10;;;26.90;51.90;;;;;;5033576;28;20052;-50
2021/08/11 00:22:28;;;;;;;0.15;0.10;;;27.00;52.00;;;;;;5050551;28;20047;-53
2021/08/11 00:24:56;;;;;;;0.10;0.10;;;26.90;52.00;;;;;;5049798;28;20069;-53
2021/08/11 00:27:23;;;;;;;0.10;0.10;;;26.90;52.00;;;;;;5042022;28;20045;-54
2021/08/11 00:29:51;;;;;;;0.17;0.10;;;26.90;52.00;;;;;;5041020;28;20052;-55
2021/08/11 00:32:18;;;;;;;0.17;0.17;;;26.90;52.00;;;;;;5049337;28;20041;-51
2021/08/11 00:34:45;;;;;;;0.20;0.10;;;26.90;52.00;;;;;;5048009;28;20102;-51
2021/08/11 00:37:12;;;;;;;0.10;0.10;;;26.90;52.10;;;;;;5050357;28;20044;-50
2021/08/11 00:39:45;;;;;;;0.10;0.10;;;26.90;52.10;;;;;;5047872;28;20045;-53
2021/08/11 00:42:14;;;;;;;0.10;0.10;;;26.90;52.10;;;;;;5047492;28;20049;-52
2021/08/11 00:44:41;;;;;;;0.10;0.10;;;26.90;52.10;;;;;;5045239;28;20041;-54
2021/08/11 00:47:09;;;;;;;1.23;0.10;;;26.90;52.20;;;;;;5047646;28;20051;-51
2021/08/11 00:49:42;;;;;;;0.20;0.20;;;26.80;52.10;;;;;;5047405;28;20399;-54
2021/08/11 00:52:11;;;;;;;0.30;0.13;;;26.90;52.20;;;;;;5047768;28;20049;-50
2021/08/11 00:54:38;;;;;;;0.13;0.10;;;26.90;52.20;;;;;;5047254;28;20133;-53
2021/08/11 00:57:12;;;;;;;0.73;0.10;;;26.80;52.20;;;;;;5030731;28;20041;-54
2021/08/11 00:59:42;;;;;;;0.30;0.10;;;26.90;52.30;;;;;;5045885;28;20636;-52
2021/08/11 01:02:16;;;;;;;2.15;0.25;;;26.80;52.20;;;;;;5032265;28;20045;-51
2021/08/11 01:04:46;;;;;;;0.10;0.10;;;26.80;52.20;;;;;;5046713;28;20084;-54
2021/08/11 01:07:15;;;;;;;0.55;0.10;;;26.80;52.30;;;;;;5049686;28;20526;-53
2021/08/11 01:09:43;;;;;;;0.10;0.10;;;26.80;52.30;;;;;;5046695;28;20055;-52
2021/08/11 01:12:13;;;;;;;0.28;0.10;;;26.80;52.30;;;;;;5046977;28;20502;-51
2021/08/11 01:14:43;;;;;;;0.10;0.10;;;26.80;52.30;;;;;;5044644;28;20045;-55
2021/08/11 01:17:12;;;;;;;0.40;0.40;;;26.80;52.30;;;;;;5046305;28;20051;-51
2021/08/11 01:19:39;;;;;;;0.35;0.35;;;26.80;52.30;;;;;;5046737;28;20135;-49
2021/08/11 01:22:11;;;;;;;0.38;0.13;;;26.80;52.30;;;;;;5034598;28;20056;-50
2021/08/11 01:24:45;;;;;;;0.10;0.10;;;26.80;52.30;;;;;;5037867;28;20037;-51
2021/08/11 01:27:52;;;;;;;0.20;0.10;;;26.80;52.40;;;;;;5041186;28;20593;-50
2021/08/11 01:30:27;;;;;;;0.10;0.10;;;26.80;52.30;;;;;;4969008;28;20046;-47
2021/08/11 01:33:23;;;;;;;0.10;0.10;;;26.70;52.30;;;;;;4969299;28;20038;-51
2021/08/11 01:35:58;;;;;;;0.10;0.10;;;26.80;52.40;;;;;;4985694;28;20157;-54
2021/08/11 01:38:27;;;;;;;0.20;0.20;;;26.70;52.40;;;;;;4985543;28;20053;-53
2021/08/11 01:40:58;;;;;;;1.35;0.45;;;26.70;52.40;;;;;;4970378;28;20493;-54
2021/08/11 01:43:29;;;;;;;0.30;0.10;;;26.70;52.40;;;;;;4971019;28;20046;-53
2021/08/11 01:45:58;;;;;;;0.50;0.10;;;26.70;52.40;;;;;;4975197;28;20425;-54
2021/08/11 01:48:29;;;;;;;0.47;0.10;;;26.70;52.40;;;;;;4974530;28;20070;-51
2021/08/11 01:51:01;;;;;;;0.30;0.10;;;26.70;53.00;;;;;;4956847;28;20058;-54
2021/08/11 01:53:32;;;;;;;0.10;0.10;;;26.70;52.30;;;;;;4967756;28;20086;-51
2021/08/11 01:56:04;;;;;;;0.22;0.10;;;26.70;52.30;;;;;;4968536;28;20124;-51
2021/08/11 01:58:41;;;;;;;0.10;0.10;;;26.70;52.30;;;;;;4969228;28;20046;-55
2021/08/11 02:01:12;;;;;;;0.10;0.10;;;26.70;52.30;;;;;;4957079;28;20061;-50
2021/08/11 02:03:44;;;;;;;0.43;0.10;;;26.70;52.30;;;;;;4954714;28;20544;-52
2021/08/11 02:06:11;;;;;;;0.10;0.03;;;26.70;52.30;;;;;;4972202;28;20517;-51
2021/08/11 02:08:41;;;;;;;0.25;0.10;;;26.70;52.30;;;;;;5035208;28;20119;-52
2021/08/11 02:11:13;;;;;;;0.10;0.10;;;26.70;52.90;;;;;;5045705;28;20056;-52
2021/08/11 02:13:41;;;;;;;0.10;0.10;;;26.70;52.30;;;;;;5048240;28;20127;-54
2021/08/11 02:16:11;;;;;;;0.20;0.10;;;26.70;52.30;;;;;;5033381;28;20072;-53
2021/08/11 02:18:39;;;;;;;0.10;0.10;;;26.70;52.30;;;;;;5043784;28;20053;-53
2021/08/11 02:21:07;;;;;;;0.10;0.10;;;26.70;52.30;;;;;;5045529;28;20489;-49
2021/08/11 02:23:35;;;;;;;0.10;0.10;;;26.70;52.30;;;;;;5044969;28;20449;-49
2021/08/11 02:26:10;;;;;;;0.43;0.43;;;26.70;52.30;;;;;;5030372;28;20045;-49
2021/08/11 02:28:46;;;;;;;0.05;0.00;;;26.60;52.20;;;;;;5029608;28;20114;-48
2021/08/11 02:31:23;;;;;;;0.17;0.17;;;26.60;52.20;;;;;;5031058;28;20469;-54
2021/08/11 02:33:58;;;;;;;0.10;0.10;;;26.60;52.20;;;;;;5029914;28;20079;-53
2021/08/11 02:36:31;;;;;;;0.10;0.10;;;26.60;52.20;;;;;;5041032;28;20132;-54
2021/08/11 02:39:06;;;;;;;0.10;0.03;;;26.60;52.20;;;;;;5046555;28;20037;-54
2021/08/11 02:41:37;;;;;;;0.13;0.10;;;26.60;52.20;;;;;;5046545;28;20047;-52
2021/08/11 02:44:10;;;;;;;0.17;0.05;;;26.60;52.20;;;;;;5060229;28;20586;-54
2021/08/11 02:46:41;;;;;;;0.10;0.10;;;26.60;52.30;;;;;;5026372;28;20058;-50
2021/08/11 02:49:13;;;;;;;0.10;0.10;;;26.60;52.20;;;;;;5047240;28;20103;-54
2021/08/11 02:51:43;;;;;;;0.10;0.10;;;26.60;52.20;;;;;;5045397;28;20152;-55
2021/08/11 02:54:15;;;;;;;0.13;0.10;;;26.50;52.20;;;;;;5045431;28;20127;-53
2021/08/11 02:56:45;;;;;;;0.10;0.10;;;26.50;52.20;;;;;;5057060;28;20588;-54
2021/08/11 02:59:14;;;;;;;0.20;0.20;;;26.50;52.10;;;;;;5057501;28;20071;-55
2021/08/11 03:01:42;;;;;;;0.85;0.10;;;26.50;52.20;;;;;;5047240;28;20414;-55
2021/08/11 03:04:10;;;;;;;0.47;0.10;;;26.50;52.10;;;;;;5032435;28;20045;-52
2021/08/11 03:06:37;;;;;;;0.10;0.10;;;26.50;52.10;;;;;;5039325;28;20037;-55
2021/08/11 03:09:08;;;;;;;0.10;0.10;;;26.50;52.10;;;;;;5038104;28;20400;-53
2021/08/11 03:11:36;;;;;;;0.10;0.10;;;26.50;52.10;;;;;;5042016;28;20060;-55
2021/08/11 03:14:05;;;;;;;0.10;0.10;;;26.50;52.10;;;;;;5028256;28;20042;-49
2021/08/11 03:16:36;;;;;;;0.17;0.10;;;26.50;52.10;;;;;;5048152;28;20522;-56
2021/08/11 03:19:04;;;;;;;0.10;0.10;;;26.50;52.10;;;;;;5039435;28;20515;-53
2021/08/11 03:21:32;;;;;;;0.75;0.10;;;26.50;52.10;;;;;;5024844;28;20124;-52
2021/08/11 03:23:59;;;;;;;0.20;0.10;;;26.50;52.10;;;;;;5046076;28;20130;-52
2021/08/11 03:26:28;;;;;;;0.10;0.10;;;26.50;52.10;;;;;;5043372;28;20071;-49
2021/08/11 03:29:00;;;;;;;0.85;0.17;;;26.50;52.20;;;;;;5025768;28;20045;-53
2021/08/11 03:31:30;;;;;;;0.10;0.10;;;26.40;52.10;;;;;;5009550;28;20046;-53
2021/08/11 03:33:59;;;;;;;0.10;0.10;;;26.40;52.10;;;;;;5050280;28;20050;-50
2021/08/11 03:36:27;;;;;;;0.10;0.10;;;26.40;52.10;;;;;;5040845;28;20048;-51
2021/08/11 03:38:56;;;;;;;0.20;0.10;;;26.40;52.10;;;;;;5044371;28;20049;-48
2021/08/11 03:41:23;;;;;;;1.02;0.10;;;26.40;52.10;;;;;;5044377;28;20049;-52
2021/08/11 03:43:52;;;;;;;0.10;0.10;;;26.40;52.10;;;;;;5029582;28;20415;-52
2021/08/11 03:46:25;;;;;;;0.10;0.10;;;26.40;52.10;;;;;;5033916;28;20080;-54
2021/08/11 03:48:52;;;;;;;0.65;0.17;;;26.40;52.20;;;;;;5048013;28;20099;-51
2021/08/11 03:51:20;;;;;;;0.13;0.10;;;26.40;52.20;;;;;;5048062;28;20033;-53
2021/08/11 03:53:47;;;;;;;0.10;0.10;;;26.40;52.20;;;;;;5046736;28;20095;-51
2021/08/11 03:56:15;;;;;;;0.57;0.10;;;26.40;52.20;;;;;;5048118;28;20044;-52
2021/08/11 03:58:42;;;;;;;0.10;0.00;;;26.40;52.20;;;;;;5050374;28;20668;-50
2021/08/11 04:01:12;;;;;;;0.10;0.10;;;26.40;52.20;;;;;;5047302;28;20072;-51
2021/08/11 04:03:39;;;;;;;0.10;0.10;;;26.40;52.20;;;;;;5049035;28;20047;-53
2021/08/11 04:06:06;;;;;;;0.20;0.10;;;26.40;52.20;;;;;;5048531;28;20127;-51
2021/08/11 04:08:33;;;;;;;0.10;0.10;;;26.30;52.20;;;;;;5049202;28;20083;-51
2021/08/11 04:11:00;;;;;;;0.15;0.10;;;26.30;52.20;;;;;;5033781;28;20041;-51
2021/08/11 04:13:27;;;;;;;0.10;0.10;;;26.30;52.20;;;;;;5046241;28;20064;-49
2021/08/11 04:15:54;;;;;;;0.30;0.10;;;26.30;52.20;;;;;;5037587;28;20111;-52
2021/08/11 04:18:22;;;;;;;0.10;0.10;;;26.30;52.30;;;;;;5036611;28;20458;-53
2021/08/11 04:20:49;;;;;;;0.10;0.10;;;26.30;52.30;;;;;;5039900;28;20045;-51
2021/08/11 04:23:16;;;;;;;0.10;0.10;;;26.30;52.30;;;;;;5049162;28;20056;-50
2021/08/11 04:25:43;;;;;;;0.10;0.10;;;26.30;52.30;;;;;;5049156;28;20450;-47
2021/08/11 04:28:11;;;;;;;0.10;0.10;;;26.30;52.30;;;;;;5036567;28;20045;-49
2021/08/11 04:30:40;;;;;;;0.25;0.10;;;26.30;52.30;;;;;;5037405;28;20057;-49
2021/08/11 04:33:07;;;;;;;0.90;0.47;;;26.30;52.30;;;;;;5042120;28;20059;-49
2021/08/11 04:35:38;;;;;;;0.15;0.15;;;26.30;52.40;;;;;;5047332;28;20059;-52
2021/08/11 04:38:05;;;;;;;1.10;0.50;;;26.30;52.40;;;;;;5048756;28;20122;-52
2021/08/11 04:40:32;;;;;;;0.10;0.10;;;26.30;52.40;;;;;;5044512;28;20044;-54
2021/08/11 04:42:59;;;;;;;0.10;0.03;;;26.30;52.40;;;;;;5041402;28;20049;-50
2021/08/11 04:45:26;;;;;;;0.20;0.10;;;26.30;52.40;;;;;;5039228;28;20427;-49
2021/08/11 04:47:53;;;;;;;1.38;0.10;;;26.30;52.40;;;;;;5048555;28;20045;-54
2021/08/11 04:50:21;;;;;;;0.40;0.10;;;26.30;53.00;;;;;;5039343;28;22872;-53
2021/08/11 04:52:49;;;;;;;0.10;0.00;;;26.30;52.50;;;;;;5048505;28;20048;-48
2021/08/11 04:55:16;;;;;;;0.10;0.10;;;26.30;52.40;;;;;;5035302;28;20049;-53
2021/08/11 04:57:43;;;;;;;0.17;0.10;;;26.30;52.40;;;;;;5038948;28;20057;-54
2021/08/11 05:00:10;;;;;;;1.17;0.10;;;26.30;52.50;;;;;;5041946;28;20059;-50
2021/08/11 05:02:38;;;;;;;0.10;0.08;;;26.30;52.50;;;;;;5047914;28;20123;-55
2021/08/11 05:05:07;;;;;;;0.10;0.10;;;26.30;52.50;;;;;;5033682;28;20047;-53
2021/08/11 05:07:34;;;;;;;0.30;0.10;;;26.30;52.50;;;;;;5032553;28;20068;-50
2021/08/11 05:10:03;;;;;;;1.00;0.10;;;26.20;52.50;;;;;;5037007;28;20057;-48
2021/08/11 05:12:32;;;;;;;0.10;0.10;;;26.20;52.50;;;;;;5044853;28;20123;-51
2021/08/11 05:15:00;;;;;;;0.70;0.10;;;26.30;52.60;;;;;;5044010;28;20112;-47
2021/08/11 05:17:27;;;;;;;0.30;0.10;;;26.20;52.50;;;;;;5036187;28;20052;-53
2021/08/11 05:19:54;;;;;;;0.10;0.10;;;26.30;52.50;;;;;;5047927;28;20033;-48
2021/08/11 05:22:23;;;;;;;0.00;0.00;;;26.20;52.50;;;;;;5036238;28;20036;-50
2021/08/11 05:24:50;;;;;;;1.30;0.10;;;26.20;52.50;;;;;;5036501;28;20045;-48
2021/08/11 05:27:19;;;;;;;0.10;0.10;;;26.30;52.60;;;;;;5042038;28;20045;-47
2021/08/11 05:29:46;;;;;;;0.10;0.10;;;26.30;52.60;;;;;;5047777;28;20056;-50
2021/08/11 05:32:14;;;;;;;0.20;0.10;;;26.20;52.50;;;;;;5047775;28;20044;-54
2021/08/11 05:34:41;;;;;;;0.10;0.10;;;26.20;52.60;;;;;;5031855;28;20049;-50
2021/08/11 05:37:09;;;;;;;0.10;0.10;;;26.30;52.60;;;;;;5048561;28;20044;-51
2021/08/11 05:39:36;;;;;;;0.20;0.10;;;26.20;52.60;;;;;;5039049;28;20038;-50
2021/08/11 05:42:03;;;;;;;0.20;0.10;;;26.20;52.60;;;;;;5039993;28;20522;-52
2021/08/11 05:44:32;;;;;;;0.20;0.10;;;26.20;52.60;;;;;;5047476;28;20041;-51
2021/08/11 05:47:00;;;;;;;0.20;0.10;;;26.20;52.60;;;;;;5031310;28;20059;-52
2021/08/11 05:49:28;;;;;;;2.90;0.30;;;26.20;52.60;;;;;;5033439;28;20512;-52
2021/08/11 05:51:55;;;;;;;0.17;0.10;;;26.20;52.60;;;;;;5047618;28;20123;-52
2021/08/11 05:54:22;;;;;;;0.25;0.10;;;26.20;52.60;;;;;;5046943;28;20052;-53
2021/08/11 05:56:49;;;;;;;0.10;0.10;;;26.20;52.60;;;;;;5047555;28;20059;-54
2021/08/11 05:59:16;;;;;;;0.20;0.10;;;26.20;52.60;;;;;;5047032;28;20127;-54
2021/08/11 06:01:45;;;;;;;1.35;0.20;;;26.20;52.60;;;;;;5031096;28;20048;-49
2021/08/11 06:04:12;;;;;;;1.13;0.40;;;26.20;52.60;;;;;;5032539;28;20052;-51
2021/08/11 06:06:39;;;;;;;1.25;0.30;;;26.20;52.60;;;;;;5044646;28;20080;-52
2021/08/11 06:09:06;;;;;;;2.58;0.70;;;26.20;52.60;;;;;;5046638;28;20048;-53
2021/08/11 06:11:33;;;;;;;0.30;0.30;;;26.20;52.60;;;;;;5047152;28;20068;-48
2021/08/11 06:14:00;;;;;;;1.20;0.63;;;26.20;52.60;;;;;;5031527;28;20116;-52
2021/08/11 06:16:27;;;;;;;1.60;0.52;;;26.20;52.70;;;;;;5044158;28;20154;-53
2021/08/11 06:18:56;;;;;;;0.70;0.70;;;26.20;52.70;;;;;;5046542;28;20102;-51
2021/08/11 06:21:24;;;;;;;1.73;0.80;;;26.20;52.70;;;;;;5046676;28;20069;-52
2021/08/11 06:23:52;;;;;;;2.60;1.50;;;26.20;52.70;;;;;;5046556;28;20379;-54
2021/08/11 06:26:19;;;;;;;1.42;0.82;;;26.30;52.70;;;;;;5046549;28;20072;-50
2021/08/11 06:28:46;;;;;;;1.77;1.67;;;26.30;52.80;;;;;;5047011;28;20078;-53
2021/08/11 06:31:14;;;;;;;1.40;1.30;;;26.20;52.70;;;;;;5047560;28;20510;-50
2021/08/11 06:33:41;;;;;;;4.35;1.85;;;26.30;52.70;;;;;;5037403;28;20049;-48
2021/08/11 06:36:10;;;;;;;1.40;1.40;;;26.30;52.80;;;;;;5039995;28;20103;-50
2021/08/11 06:38:37;;;;;;;2.10;2.00;;;26.30;52.80;;;;;;5045686;28;20579;-53
2021/08/11 06:41:05;;;;;;;2.67;2.05;;;26.30;52.80;;;;;;5031512;28;20096;-54
2021/08/11 06:43:35;;;;;;;4.43;2.63;;;26.30;52.80;;;;;;5029802;28;20052;-50
2021/08/11 06:46:03;;;;;;;3.08;2.50;;;26.30;52.70;;;;;;5061510;28;20532;-50
2021/08/11 06:48:30;;;;;;;2.85;2.65;;;26.30;52.80;;;;;;5040209;28;20045;-51
2021/08/11 06:50:57;;;;;;;2.60;2.40;;;26.30;52.80;;;;;;5042750;28;20049;-50
2021/08/11 06:53:26;;;;;;;3.03;2.08;;;26.30;52.80;;;;;;5033364;28;20048;-50
2021/08/11 06:55:53;;;;;;;2.55;1.80;;;26.30;52.70;;;;;;5030073;28;20138;-52
2021/08/11 06:58:21;;;;;;;2.53;2.08;;;26.40;52.80;;;;;;5047193;28;20414;-52
2021/08/11 07:00:52;;;;;;;3.13;1.77;;;26.40;52.80;;;;;;5046129;28;20052;-55
2021/08/11 07:03:22;;;;;;;4.07;2.30;;;26.40;52.80;;;;;;5045819;28;20591;-49
2021/08/11 07:05:49;;;;;;;2.50;1.63;;;26.40;52.80;;;;;;5043967;28;20041;-49
2021/08/11 07:08:16;;;;;;;4.15;1.42;;;26.40;52.70;;;;;;5032649;28;20053;-51
2021/08/11 07:10:45;;;;;;;1.90;1.80;;;26.40;52.70;;;;;;5046084;28;20052;-52
2021/08/11 07:13:12;;;;;;;2.13;1.27;;;26.40;52.70;;;;;;5031769;28;20147;-50
2021/08/11 07:15:39;;;;;;;1.90;1.30;;;26.40;52.70;;;;;;5043714;28;20053;-55
2021/08/11 07:18:06;;;;;;;3.83;1.15;;;26.50;52.80;;;;;;5045999;28;20041;-50
2021/08/11 07:20:35;;;;;;;6.55;1.48;;;26.50;52.80;;;;;;5041860;28;20045;-52
2021/08/11 07:23:02;;;;;;;4.13;0.93;;;26.50;52.80;;;;;;5030212;28;20086;-51
2021/08/11 07:25:31;;;;;;;1.52;0.85;;;26.50;52.80;;;;;;5031275;28;20085;-51
2021/08/11 07:27:59;;;;;;;2.85;1.52;;;26.50;52.80;;;;;;5045940;28;20080;-51
2021/08/11 07:30:27;;;;;;;1.55;0.40;;;26.50;52.80;;;;;;5037933;28;20163;-50
2021/08/11 07:32:54;;;;;;;1.52;0.95;;;26.50;52.80;;;;;;5034482;28;20480;-55
2021/08/11 07:35:22;;;;;;;2.53;1.33;;;26.50;52.90;;;;;;5031750;28;20136;-50
2021/08/11 07:37:50;;;;;;;2.97;0.73;;;26.60;53.00;;;;;;5045341;28;20041;-48
2021/08/11 07:40:18;;;;;;;2.97;1.08;;;26.60;53.00;;;;;;5032831;28;20052;-50
2021/08/11 07:42:46;;;;;;;3.10;0.88;;;26.60;52.90;;;;;;5033033;28;20546;-52
2021/08/11 07:45:16;;;;;;;5.22;1.13;;;26.60;52.90;;;;;;5033054;28;20065;-54
2021/08/11 07:47:46;;;;;;;2.33;0.80;;;26.60;52.90;;;;;;5035527;28;20045;-46
2021/08/11 07:50:15;;;;;;;2.58;1.20;;;26.60;52.90;;;;;;5034119;28;20041;-47
2021/08/11 07:52:43;;;;;;;3.40;1.48;;;26.60;52.80;;;;;;5045787;28;20048;-48
2021/08/11 07:55:10;;;;;;;5.00;1.33;;;26.60;52.80;;;;;;5033601;28;20561;-48
2021/08/11 07:57:38;;;;;;;1.50;1.40;;;26.60;52.90;;;;;;5034386;28;20052;-50
2021/08/11 08:00:07;;;;;;;1.27;1.17;;;26.70;53.50;;;;;;5038881;28;20048;-52
2021/08/11 08:02:41;;;;;;;1.50;0.93;;;26.70;52.80;;;;;;5044903;28;20494;-49
2021/08/11 08:05:09;;;;;;;1.67;0.90;;;26.70;52.80;;;;;;5029751;28;20041;-54
2021/08/11 08:07:37;;;;;;;1.13;0.95;;;26.70;52.70;;;;;;5045981;28;20487;-46
2021/08/11 08:10:05;;;;;;;2.67;1.63;;;26.70;52.60;;;;;;5046626;28;20081;-48
2021/08/11 08:12:33;;;;;;;2.38;0.98;;;26.70;52.60;;;;;;5037583;28;20050;-51
2021/08/11 08:15:00;;;;;;;5.00;1.23;;;26.80;52.60;;;;;;5032809;28;20404;-54
2021/08/11 08:17:27;;;;;;;3.15;1.98;;;26.70;53.10;;;;;;5033504;28;20053;-49
2021/08/11 08:19:56;;;;;;;2.40;1.55;;;26.70;52.50;;;;;;5045260;28;20056;-52
2021/08/11 08:22:23;;;;;;;1.15;1.15;;;26.80;52.50;;;;;;5046868;28;20056;-53
2021/08/11 08:24:54;;;;;;;1.58;1.33;;;26.80;52.40;;;;;;5034963;28;20430;-48
2021/08/11 08:27:23;;;;;;;2.38;2.20;;;26.80;52.40;;;;;;5034275;28;20054;-52
2021/08/11 08:29:50;;;;;;;2.33;1.77;;;26.80;52.30;;;;;;5036466;28;20041;-53
2021/08/11 08:32:18;;;;;;;3.72;2.88;;;26.80;52.30;;;;;;5047104;28;20037;-52
2021/08/11 08:34:46;;;;;;;4.68;2.50;;;26.80;52.30;;;;;;5032941;28;20045;-50
2021/08/11 08:37:26;;;;;;;4.03;3.25;;;26.80;52.20;;;;;;5034941;28;20100;-53
2021/08/11 08:39:54;;;;;;;8.00;5.00;;;26.80;52.10;;;;;;5048414;28;20048;-50
2021/08/11 08:42:21;;;;;;;9.98;5.75;;;26.90;52.20;;;;;;5049077;28;20087;-53
2021/08/11 08:44:48;;;;;;;6.93;6.30;;;26.80;52.10;;;;;;5048979;28;20052;-50
2021/08/11 08:47:18;;;;;;;11.13;6.60;;;26.80;52.10;;;;;;5048937;28;20045;-58
2021/08/11 08:49:46;;;;;;;6.78;5.10;;;26.80;52.00;;;;;;5044605;28;20136;-52
2021/08/11 08:52:17;;;;;;;5.25;4.75;;;26.90;52.10;;;;;;5048616;28;20086;-51
2021/08/11 08:54:46;;;;;;;5.28;4.75;;;26.90;52.60;;;;;;5048844;28;20148;-52
2021/08/11 08:57:14;;;;;;;4.97;4.10;;;26.90;52.00;;;;;;5043302;28;20069;-50
2021/08/11 08:59:44;;;;;;;5.68;3.78;;;26.90;52.00;;;;;;5038692;28;20053;-49
2021/08/11 09:02:11;;;;;;;8.70;4.40;;;26.90;52.00;;;;;;5049083;28;20044;-51
2021/08/11 09:04:40;;;;;;;4.57;4.03;;;26.90;51.90;;;;;;5030920;28;20515;-53
2021/08/11 09:07:10;;;;;;;7.55;4.00;;;26.90;51.90;;;;;;5049580;28;20037;-54
2021/08/11 09:09:39;;;;;;;3.20;3.00;;;26.90;51.90;;;;;;5048103;28;20051;-52
2021/08/11 09:12:13;;;;;;;5.85;3.25;;;26.90;51.90;;;;;;5048443;28;20074;-52
2021/08/11 09:14:45;;;;;;;4.72;3.78;;;26.90;51.90;;;;;;5046839;28;20052;-50
2021/08/11 09:17:13;;;;;;;3.90;3.50;;;26.90;51.90;;;;;;5048243;28;20410;-52
2021/08/11 09:19:44;;;;;;;3.08;2.78;;;26.90;51.90;;;;;;5048123;28;20045;-54
2021/08/11 09:22:13;;;;;;;4.68;2.53;;;27.00;51.90;;;;;;5030632;28;20041;-56
2021/08/11 09:24:42;;;;;;;2.65;2.45;;;26.90;51.80;;;;;;5045837;28;20044;-53
2021/08/11 09:27:21;;;;;;;3.78;2.78;;;26.90;51.80;;;;;;5047681;28;20037;-53
2021/08/11 09:30:19;;;;;;;3.40;2.40;;;27.00;51.80;;;;;;5045573;28;20048;-54
2021/08/11 09:32:57;;;;;;;2.33;2.22;;;27.00;51.70;;;;;;4976371;28;20049;-54
2021/08/11 09:35:27;;;;;;;2.10;1.92;;;27.00;51.80;;;;;;4986021;28;20046;-53
2021/08/11 09:37:56;;;;;;;3.15;2.20;;;27.00;51.80;;;;;;4985621;28;20254;-52
2021/08/11 09:40:26;;;;;;;3.70;1.92;;;27.00;51.80;;;;;;4986925;28;20073;-51
2021/08/11 09:42:55;;;;;;;2.20;1.80;;;27.00;51.80;;;;;;4975260;28;20047;-52
2021/08/11 09:45:23;;;;;;;3.58;1.58;;;27.00;51.70;;;;;;4981472;28;20083;-53
2021/08/11 09:47:59;;;;;;;2.85;1.35;;;27.00;51.70;;;;;;4985190;28;20101;-51
2021/08/11 09:50:35;;;;;;;3.90;1.30;;;27.00;51.70;;;;;;4974138;28;20050;-52
2021/08/11 09:53:02;;;;;;;;;;;27.00;51.60;;;;;;4970925;28;20192;-52
2021/08/11 09:55:51;;;;;;;1.25;1.15;;;27.00;51.60;;;;;;4971353;28;19930;-54
2021/08/11 09:58:20;;;;;;;2.40;1.13;;;27.00;51.80;;;;;;4971571;28;20062;-52
2021/08/11 10:00:47;;;;;;;2.35;1.35;;;27.00;51.70;;;;;;4974078;28;20058;-51
2021/08/11 10:03:14;;;;;;;0.70;0.70;;;27.00;51.60;;;;;;4957964;28;20043;-53
2021/08/11 10:05:41;;;;;;;1.13;1.02;;;27.00;51.60;;;;;;4974491;28;20053;-56
2021/08/11 10:08:09;;;;;;;2.58;0.90;;;27.10;51.60;;;;;;5031466;28;20092;-52
2021/08/11 10:10:47;;;;;;;0.65;0.45;;;27.10;51.50;;;;;;5047679;28;20041;-54
2021/08/11 10:13:17;;;;;;;1.83;0.93;;;27.10;51.50;;;;;;5032970;28;20041;-54
2021/08/11 10:15:45;;;;;;;0.57;0.57;;;27.10;51.50;;;;;;5045412;28;20114;-51
2021/08/11 10:18:14;;;;;;;1.55;0.70;;;27.10;52.00;;;;;;5046768;28;20041;-51
2021/08/11 10:20:45;;;;;;;1.75;0.57;;;27.10;51.50;;;;;;5046735;28;20091;-51
2021/08/11 10:23:15;;;;;;;2.35;0.30;;;27.20;51.50;;;;;;5046706;28;20036;-50
2021/08/11 10:25:42;;;;;;;1.88;0.28;;;27.20;51.70;;;;;;5047080;28;20152;-53
2021/08/11 10:28:11;;;;;;;0.50;0.50;;;27.20;51.40;;;;;;5034722;28;20068;-53
2021/08/11 10:30:40;;;;;;;5.50;0.82;;;27.20;51.30;;;;;;5035290;28;20041;-53
2021/08/11 10:33:10;;;;;;;0.82;0.30;;;27.20;51.30;;;;;;5040038;28;20033;-50
2021/08/11 10:35:39;;;;;;;0.60;0.45;;;27.20;51.30;;;;;;5046349;28;20703;-53
2021/08/11 10:38:09;;;;;;;0.45;0.43;;;27.30;51.30;;;;;;5031831;28;20076;-53
2021/08/11 10:40:36;;;;;;;1.33;0.32;;;27.30;51.30;;;;;;5047067;28;20045;-51
2021/08/11 10:43:05;;;;;;;0.43;0.43;;;27.30;51.30;;;;;;5034456;28;20064;-51
2021/08/11 10:45:34;;;;;;;0.50;0.35;;;27.30;51.20;;;;;;5034962;28;20073;-52
2021/08/11 10:48:14;;;;;;;0.63;0.20;;;27.30;51.20;;;;;;5038935;28;20057;-54
2021/08/11 10:50:45;;;;;;;0.85;0.40;;;27.30;51.10;;;;;;5046604;28;20546;-52
2021/08/11 10:53:13;;;;;;;1.00;0.30;;;27.30;51.10;;;;;;5046596;28;20048;-50
2021/08/11 10:55:42;;;;;;;0.45;0.38;;;27.40;51.20;;;;;;5046166;28;20037;-51
2021/08/11 10:58:10;;;;;;;0.20;0.17;;;27.40;51.20;;;;;;5047471;28;20128;-52
2021/08/11 11:00:44;;;;;;;0.73;0.30;;;27.40;51.10;;;;;;5037468;28;20046;-52
2021/08/11 11:03:32;;;;;;;0.63;0.22;;;27.40;51.10;;;;;;5040209;28;20055;-52
2021/08/11 11:06:01;;;;;;;0.80;0.20;;;27.40;51.00;;;;;;5042892;28;20045;-52
2021/08/11 11:08:32;;;;;;;1.75;0.25;;;27.40;51.00;;;;;;5034109;28;20083;-54
2021/08/11 11:11:35;;;;;;;0.40;0.20;;;27.50;51.00;;;;;;5030686;28;20048;-54
2021/08/11 11:14:04;;;;;;;1.95;0.20;;;27.50;50.90;;;;;;5030490;28;20065;-53
2021/08/11 11:17:12;;;;;;;0.20;0.20;;;27.50;51.00;;;;;;5045170;28;20051;-53
2021/08/11 11:20:25;;;;;;;0.50;0.50;;;27.50;50.90;;;;;;5027688;28;20484;-54
2021/08/11 11:22:56;;;;;;;0.93;0.47;;;27.50;50.90;;;;;;5045483;28;20033;-53
2021/08/11 11:25:58;;;;;;;0.77;0.28;;;27.50;51.00;;;;;;5047716;28;20044;-49
2021/08/11 11:29:06;;;;;;;1.73;0.30;;;27.50;50.90;;;;;;5043208;28;20053;-49
2021/08/11 11:31:43;;;;;;;1.50;0.30;;;27.60;50.90;;;;;;5043605;28;20130;-52
2021/08/11 11:34:34;;;;;;;0.38;0.28;;;27.60;51.00;;;;;;5031733;28;20194;-48
2021/08/11 11:37:23;;;;;;;0.40;0.32;;;27.60;50.90;;;;;;5046917;28;20052;-54
2021/08/11 11:40:13;;;;;;;0.45;0.32;;;27.60;50.80;;;;;;5046197;28;20053;-52
2021/08/11 11:42:41;;;;;;;2.58;0.90;;;27.60;50.70;;;;;;5045892;28;20045;-52
2021/08/11 11:45:37;;;;;;;1.17;0.20;;;27.60;50.80;;;;;;5046174;28;20469;-52
2021/08/11 11:48:05;;;;;;;0.40;0.40;;;27.70;50.80;;;;;;5041525;28;20041;-52
2021/08/11 11:50:41;;;;;;;0.32;0.30;;;27.70;50.80;;;;;;5034490;28;20091;-48
2021/08/11 11:53:10;;;;;;;;;;;27.70;50.70;;;;;;5032059;28;20367;-53
2021/08/11 11:55:41;;;;;;;0.73;0.38;;;27.70;50.70;;;;;;5030415;28;20027;-55
2021/08/11 11:58:09;;;;;;;0.40;0.20;;;27.70;50.80;;;;;;5033648;28;20128;-55
2021/08/11 12:00:38;;;;;;;0.52;0.20;;;27.70;50.60;;;;;;5035340;28;20053;-50
2021/08/11 12:03:05;;;;;;;0.70;0.30;;;27.80;50.60;;;;;;5034862;28;20073;-53
2021/08/11 12:05:45;;;;;;;0.30;0.20;;;27.80;50.50;;;;;;5035649;28;20140;-53
2021/08/11 12:08:12;;;;;;;0.20;0.20;;;27.90;51.10;;;;;;5035536;28;20053;-54
2021/08/11 12:10:42;;;;;;;0.40;0.20;;;27.90;50.50;;;;;;5033645;28;20096;-55
2021/08/11 12:13:09;;;;;;;0.30;0.28;;;27.90;50.50;;;;;;5050270;28;20063;-53
2021/08/11 12:15:39;;;;;;;0.50;0.30;;;27.90;50.40;;;;;;5049223;28;20052;-51
2021/08/11 12:18:16;;;;;;;0.30;0.30;;;28.00;50.40;;;;;;5048921;28;20047;-55
2021/08/11 12:20:45;;;;;;;0.50;0.15;;;28.00;50.40;;;;;;5048899;28;20711;-55
2021/08/11 12:23:22;;;;;;;0.43;0.20;;;28.00;50.90;;;;;;5049196;28;20045;-54
2021/08/11 12:25:52;;;;;;;0.20;0.10;;;28.10;50.30;;;;;;5049034;28;20408;-51
2021/08/11 12:28:21;;;;;;;0.40;0.40;;;28.10;50.30;;;;;;5050243;28;20037;-53
2021/08/11 12:30:55;;;;;;;1.50;0.20;;;28.10;50.10;;;;;;5038618;28;20107;-50
2021/08/11 12:33:24;;;;;;;2.40;0.20;;;28.20;50.10;;;;;;5037905;28;20890;-54
2021/08/11 12:35:52;;;;;;;0.20;0.15;;;28.10;49.90;;;;;;5040000;28;20129;-54
2021/08/11 12:38:30;;;;;;;0.95;0.20;;;28.20;49.90;;;;;;5049174;28;20049;-51
2021/08/11 12:41:14;;;;;;;0.20;0.20;;;28.20;49.80;;;;;;5048542;28;20430;-50
2021/08/11 12:43:41;;;;;;;0.60;0.20;;;28.20;49.80;;;;;;5046627;28;20415;-48
2021/08/11 12:46:09;;;;;;;1.60;0.35;;;28.30;49.80;;;;;;5049761;28;20090;-49
2021/08/11 12:48:36;;;;;;;0.70;0.40;;;28.30;49.80;;;;;;5043940;28;20053;-48
2021/08/11 12:51:21;;;;;;;0.30;0.30;;;28.30;50.30;;;;;;5048534;28;20051;-53
2021/08/11 12:54:03;;;;;;;0.95;0.10;;;28.40;49.70;;;;;;5048325;28;20045;-52
2021/08/11 12:56:32;;;;;;;0.90;0.38;;;28.40;49.60;;;;;;5048184;28;20124;-53
2021/08/11 12:59:02;;;;;;;0.30;0.20;;;28.40;49.50;;;;;;5032682;28;20522;-54
2021/08/11 13:01:35;;;;;;;0.68;0.30;;;28.40;49.40;;;;;;5045561;28;20049;-53
2021/08/11 13:04:04;;;;;;;1.42;0.50;;;28.40;49.30;;;;;;5036907;28;20510;-53